sensor_id;sensor_type;location;lat;lon;timestamp;temperature;humidity
4386;DHT22;2207;53.540;10.042;2022-08-18T00:02:06;19.90;99.90
4386;DHT22;2207;53.540;10.042;2022-08-18T00:04:35;20.00;99.90
4386;DHT22;2207;53.540;10.042;2022-08-18T00:07:04;20.10;99.90
4386;DHT22;2207;53.540;10.042;2022-08-18T00:09:32;20.20;99.90
4386;DHT22;2207;53.540;10.042;2022-08-18T00:12:01;20.20;99.90
4386;DHT22;2207;53.540;10.042;2022-08-18T00:14:28;20.20;99.90
4386;DHT22;2207;53.540;10.042;2022-08-18T00:16:56;20.30;99.90
4386;DHT22;2207;53.540;10.042;2022-08-18T00:19:24;20.40;99.90
4386;DHT22;2207;53.540;10.042;2022-08-18T00:21:52;20.40;99.90
4386;DHT22;2207;53.540;10.042;2022-08-18T00:24:19;20.40;99.90
4386;DHT22;2207;53.540;10.042;2022-08-18T00:26:46;20.40;99.90
4386;DHT22;2207;53.540;10.042;2022-08-18T00:29:13;20.40;99.90
4386;DHT22;2207;53.540;10.042;2022-08-18T00:31:40;20.40;99.90
4386;DHT22;2207;53.540;10.042;2022-08-18T00:34:07;20.40;99.90
4386;DHT22;2207;53.540;10.042;2022-08-18T00:36:34;20.40;99.90
4386;DHT22;2207;53.540;10.042;2022-08-18T00:39:03;20.40;99.90
4386;DHT22;2207;53.540;10.042;2022-08-18T00:41:30;20.40;99.90
4386;DHT22;2207;53.540;10.042;2022-08-18T00:43:57;20.30;99.90
4386;DHT22;2207;53.540;10.042;2022-08-18T00:46:27;20.30;99.90
4386;DHT22;2207;53.540;10.042;2022-08-18T00:48:56;20.20;99.90
4386;DHT22;2207;53.540;10.042;2022-08-18T00:51:27;20.20;99.90
4386;DHT22;2207;53.540;10.042;2022-08-18T00:53:59;20.20;99.90
4386;DHT22;2207;53.540;10.042;2022-08-18T00:56:33;20.10;99.90
4386;DHT22;2207;53.540;10.042;2022-08-18T00:59:04;20.10;99.90
4386;DHT22;2207;53.540;10.042;2022-08-18T01:01:34;20.10;99.90
4386;DHT22;2207;53.540;10.042;2022-08-18T01:04:05;20.00;99.90
4386;DHT22;2207;53.540;10.042;2022-08-18T01:06:37;20.00;99.90
4386;DHT22;2207;53.540;10.042;2022-08-18T01:09:06;19.90;99.90
4386;DHT22;2207;53.540;10.042;2022-08-18T01:11:34;19.90;99.90
4386;DHT22;2207;53.540;10.042;2022-08-18T01:14:03;19.90;99.90
4386;DHT22;2207;53.540;10.042;2022-08-18T01:16:30;19.90;99.90
4386;DHT22;2207;53.540;10.042;2022-08-18T01:19:15;19.90;99.90
4386;DHT22;2207;53.540;10.042;2022-08-18T01:22:09;19.80;99.90
4386;DHT22;2207;53.540;10.042;2022-08-18T01:24:40;19.80;99.90
4386;DHT22;2207;53.540;10.042;2022-08-18T01:27:25;19.80;99.90
4386;DHT22;2207;53.540;10.042;2022-08-18T01:30:00;19.80;99.90
4386;DHT22;2207;53.540;10.042;2022-08-18T01:32:28;19.80;99.90
4386;DHT22;2207;53.540;10.042;2022-08-18T01:34:54;19.80;99.90
4386;DHT22;2207;53.540;10.042;2022-08-18T01:37:23;19.70;99.90
4386;DHT22;2207;53.540;10.042;2022-08-18T01:39:51;19.70;99.90
4386;DHT22;2207;53.540;10.042;2022-08-18T01:42:18;19.70;99.90
4386;DHT22;2207;53.540;10.042;2022-08-18T01:44:46;19.70;99.90
4386;DHT22;2207;53.540;10.042;2022-08-18T01:47:16;19.70;99.90
4386;DHT22;2207;53.540;10.042;2022-08-18T01:49:44;19.70;99.90
4386;DHT22;2207;53.540;10.042;2022-08-18T01:52:16;19.70;99.90
4386;DHT22;2207;53.540;10.042;2022-08-18T01:54:45;19.70;99.90
4386;DHT22;2207;53.540;10.042;2022-08-18T01:57:14;19.70;99.90
4386;DHT22;2207;53.540;10.042;2022-08-18T01:59:41;19.70;99.90
4386;DHT22;2207;53.540;10.042;2022-08-18T02:02:11;19.70;99.90
4386;DHT22;2207;53.540;10.042;2022-08-18T02:04:40;19.70;99.90
4386;DHT22;2207;53.540;10.042;2022-08-18T02:07:10;19.80;99.90
4386;DHT22;2207;53.540;10.042;2022-08-18T02:09:39;19.80;99.90
4386;DHT22;2207;53.540;10.042;2022-08-18T02:12:07;19.80;99.90
4386;DHT22;2207;53.540;10.042;2022-08-18T02:14:36;19.80;99.90
4386;DHT22;2207;53.540;10.042;2022-08-18T02:17:04;19.80;99.90
4386;DHT22;2207;53.540;10.042;2022-08-18T02:19:33;19.80;99.90
4386;DHT22;2207;53.540;10.042;2022-08-18T02:22:00;19.80;99.90
4386;DHT22;2207;53.540;10.042;2022-08-18T02:24:27;19.80;99.90
4386;DHT22;2207;53.540;10.042;2022-08-18T02:26:57;19.80;99.90
4386;DHT22;2207;53.540;10.042;2022-08-18T02:29:24;19.80;99.90
4386;DHT22;2207;53.540;10.042;2022-08-18T02:31:52;19.80;99.90
4386;DHT22;2207;53.540;10.042;2022-08-18T02:34:19;19.80;99.90
4386;DHT22;2207;53.540;10.042;2022-08-18T02:36:46;19.80;99.90
4386;DHT22;2207;53.540;10.042;2022-08-18T02:39:13;19.80;99.90
4386;DHT22;2207;53.540;10.042;2022-08-18T02:41:40;19.80;99.90
4386;DHT22;2207;53.540;10.042;2022-08-18T02:44:08;19.70;99.90
4386;DHT22;2207;53.540;10.042;2022-08-18T02:46:36;19.70;99.90
4386;DHT22;2207;53.540;10.042;2022-08-18T02:49:05;19.70;99.90
4386;DHT22;2207;53.540;10.042;2022-08-18T02:51:34;19.70;99.90
4386;DHT22;2207;53.540;10.042;2022-08-18T02:54:00;19.70;99.90
4386;DHT22;2207;53.540;10.042;2022-08-18T02:56:29;19.70;99.90
4386;DHT22;2207;53.540;10.042;2022-08-18T02:58:58;19.70;99.90
4386;DHT22;2207;53.540;10.042;2022-08-18T03:01:28;19.70;99.90
4386;DHT22;2207;53.540;10.042;2022-08-18T03:03:57;19.70;99.90
4386;DHT22;2207;53.540;10.042;2022-08-18T03:06:26;19.60;99.90
4386;DHT22;2207;53.540;10.042;2022-08-18T03:08:55;19.60;99.90
4386;DHT22;2207;53.540;10.042;2022-08-18T03:11:24;19.60;99.90
4386;DHT22;2207;53.540;10.042;2022-08-18T03:13:51;19.60;99.90
4386;DHT22;2207;53.540;10.042;2022-08-18T03:16:19;19.60;99.90
4386;DHT22;2207;53.540;10.042;2022-08-18T03:18:50;19.60;99.90
4386;DHT22;2207;53.540;10.042;2022-08-18T03:21:19;19.60;99.90
4386;DHT22;2207;53.540;10.042;2022-08-18T03:23:49;19.60;99.90
4386;DHT22;2207;53.540;10.042;2022-08-18T03:26:17;19.60;99.90
4386;DHT22;2207;53.540;10.042;2022-08-18T03:28:48;19.60;99.90
4386;DHT22;2207;53.540;10.042;2022-08-18T03:31:17;19.60;99.90
4386;DHT22;2207;53.540;10.042;2022-08-18T03:33:47;19.60;99.90
4386;DHT22;2207;53.540;10.042;2022-08-18T03:36:17;19.50;99.90
4386;DHT22;2207;53.540;10.042;2022-08-18T03:38:45;19.50;99.90
4386;DHT22;2207;53.540;10.042;2022-08-18T03:41:17;19.50;99.90
4386;DHT22;2207;53.540;10.042;2022-08-18T03:43:44;19.50;99.90
4386;DHT22;2207;53.540;10.042;2022-08-18T03:46:13;19.50;99.90
4386;DHT22;2207;53.540;10.042;2022-08-18T03:48:41;19.50;99.90
4386;DHT22;2207;53.540;10.042;2022-08-18T03:51:13;19.40;99.90
4386;DHT22;2207;53.540;10.042;2022-08-18T03:53:41;19.40;99.90
4386;DHT22;2207;53.540;10.042;2022-08-18T03:56:10;19.40;99.90
4386;DHT22;2207;53.540;10.042;2022-08-18T03:58:42;19.40;99.90
4386;DHT22;2207;53.540;10.042;2022-08-18T04:01:10;19.40;99.90
4386;DHT22;2207;53.540;10.042;2022-08-18T04:03:41;19.40;99.90
4386;DHT22;2207;53.540;10.042;2022-08-18T04:06:14;19.40;99.90
4386;DHT22;2207;53.540;10.042;2022-08-18T04:08:41;19.40;99.90
4386;DHT22;2207;53.540;10.042;2022-08-18T04:11:08;19.30;99.90
4386;DHT22;2207;53.540;10.042;2022-08-18T04:13:35;19.40;99.90
4386;DHT22;2207;53.540;10.042;2022-08-18T04:16:05;19.40;99.90
4386;DHT22;2207;53.540;10.042;2022-08-18T04:18:32;19.50;99.90
4386;DHT22;2207;53.540;10.042;2022-08-18T04:21:00;19.50;99.90
4386;DHT22;2207;53.540;10.042;2022-08-18T04:23:28;19.50;99.90
4386;DHT22;2207;53.540;10.042;2022-08-18T04:25:55;19.60;99.90
4386;DHT22;2207;53.540;10.042;2022-08-18T04:28:24;19.70;99.90
4386;DHT22;2207;53.540;10.042;2022-08-18T04:30:52;19.80;99.90
4386;DHT22;2207;53.540;10.042;2022-08-18T04:33:20;19.90;99.90
4386;DHT22;2207;53.540;10.042;2022-08-18T04:35:48;19.90;99.90
4386;DHT22;2207;53.540;10.042;2022-08-18T04:38:15;20.10;99.90
4386;DHT22;2207;53.540;10.042;2022-08-18T04:40:42;20.20;99.90
4386;DHT22;2207;53.540;10.042;2022-08-18T04:43:10;20.30;99.90
4386;DHT22;2207;53.540;10.042;2022-08-18T04:45:40;20.40;99.90
4386;DHT22;2207;53.540;10.042;2022-08-18T04:48:07;20.50;99.90
4386;DHT22;2207;53.540;10.042;2022-08-18T04:50:37;20.60;99.90
4386;DHT22;2207;53.540;10.042;2022-08-18T04:53:05;20.70;99.90
4386;DHT22;2207;53.540;10.042;2022-08-18T04:55:51;20.80;99.90
4386;DHT22;2207;53.540;10.042;2022-08-18T04:58:18;20.90;99.90
4386;DHT22;2207;53.540;10.042;2022-08-18T05:00:47;21.00;99.90
4386;DHT22;2207;53.540;10.042;2022-08-18T05:03:21;21.10;99.90
4386;DHT22;2207;53.540;10.042;2022-08-18T05:05:52;21.10;99.90
4386;DHT22;2207;53.540;10.042;2022-08-18T05:08:23;21.00;99.90
4386;DHT22;2207;53.540;10.042;2022-08-18T05:10:52;21.10;99.90
4386;DHT22;2207;53.540;10.042;2022-08-18T05:13:20;21.20;99.90
4386;DHT22;2207;53.540;10.042;2022-08-18T05:15:52;21.30;99.90
4386;DHT22;2207;53.540;10.042;2022-08-18T05:18:19;21.50;99.90
4386;DHT22;2207;53.540;10.042;2022-08-18T05:20:51;21.60;99.90
4386;DHT22;2207;53.540;10.042;2022-08-18T05:23:20;21.70;99.90
4386;DHT22;2207;53.540;10.042;2022-08-18T05:25:48;21.80;99.90
4386;DHT22;2207;53.540;10.042;2022-08-18T05:28:16;21.90;99.90
4386;DHT22;2207;53.540;10.042;2022-08-18T05:30:45;22.10;99.90
4386;DHT22;2207;53.540;10.042;2022-08-18T05:33:13;22.20;99.90
4386;DHT22;2207;53.540;10.042;2022-08-18T05:35:44;22.30;99.90
4386;DHT22;2207;53.540;10.042;2022-08-18T05:38:33;22.40;99.90
4386;DHT22;2207;53.540;10.042;2022-08-18T05:41:10;22.50;99.90
4386;DHT22;2207;53.540;10.042;2022-08-18T05:43:40;22.60;99.90
4386;DHT22;2207;53.540;10.042;2022-08-18T05:46:09;22.70;99.90
4386;DHT22;2207;53.540;10.042;2022-08-18T05:48:40;22.70;99.90
4386;DHT22;2207;53.540;10.042;2022-08-18T05:51:15;22.70;99.90
4386;DHT22;2207;53.540;10.042;2022-08-18T05:53:47;22.70;99.90
4386;DHT22;2207;53.540;10.042;2022-08-18T05:56:34;22.70;99.90
4386;DHT22;2207;53.540;10.042;2022-08-18T05:59:17;22.60;99.90
4386;DHT22;2207;53.540;10.042;2022-08-18T06:01:50;22.70;99.90
4386;DHT22;2207;53.540;10.042;2022-08-18T06:04:28;22.80;99.90
4386;DHT22;2207;53.540;10.042;2022-08-18T06:07:04;22.80;99.90
4386;DHT22;2207;53.540;10.042;2022-08-18T06:09:41;22.80;99.90
4386;DHT22;2207;53.540;10.042;2022-08-18T06:12:23;22.80;99.90
4386;DHT22;2207;53.540;10.042;2022-08-18T06:15:01;22.90;99.90
4386;DHT22;2207;53.540;10.042;2022-08-18T06:20:44;23.40;99.90
4386;DHT22;2207;53.540;10.042;2022-08-18T06:23:21;23.70;99.90
4386;DHT22;2207;53.540;10.042;2022-08-18T06:25:58;24.00;99.90
4386;DHT22;2207;53.540;10.042;2022-08-18T06:31:19;24.40;99.90
4386;DHT22;2207;53.540;10.042;2022-08-18T06:33:58;24.80;99.90
4386;DHT22;2207;53.540;10.042;2022-08-18T06:36:38;25.90;99.90
4386;DHT22;2207;53.540;10.042;2022-08-18T06:39:19;26.70;99.90
4386;DHT22;2207;53.540;10.042;2022-08-18T06:41:51;26.60;99.90
4386;DHT22;2207;53.540;10.042;2022-08-18T06:44:25;26.40;99.90
4386;DHT22;2207;53.540;10.042;2022-08-18T06:47:01;26.20;99.90
4386;DHT22;2207;53.540;10.042;2022-08-18T06:49:38;26.50;99.90
4386;DHT22;2207;53.540;10.042;2022-08-18T06:52:25;27.10;99.90
4386;DHT22;2207;53.540;10.042;2022-08-18T06:54:56;27.70;99.90
4386;DHT22;2207;53.540;10.042;2022-08-18T06:57:31;28.10;99.90
4386;DHT22;2207;53.540;10.042;2022-08-18T07:00:22;27.80;99.90
4386;DHT22;2207;53.540;10.042;2022-08-18T07:02:59;26.90;99.90
4386;DHT22;2207;53.540;10.042;2022-08-18T07:05:37;26.20;99.90
4386;DHT22;2207;53.540;10.042;2022-08-18T07:08:35;25.70;99.90
4386;DHT22;2207;53.540;10.042;2022-08-18T07:11:17;25.20;99.90
4386;DHT22;2207;53.540;10.042;2022-08-18T07:13:55;24.80;99.90
4386;DHT22;2207;53.540;10.042;2022-08-18T07:16:33;24.60;99.90
4386;DHT22;2207;53.540;10.042;2022-08-18T07:19:09;24.40;99.90
4386;DHT22;2207;53.540;10.042;2022-08-18T07:21:46;24.20;99.90
4386;DHT22;2207;53.540;10.042;2022-08-18T07:24:29;24.00;99.90
4386;DHT22;2207;53.540;10.042;2022-08-18T07:27:05;23.80;99.90
4386;DHT22;2207;53.540;10.042;2022-08-18T07:29:40;23.60;99.90
4386;DHT22;2207;53.540;10.042;2022-08-18T07:32:17;23.20;99.90
4386;DHT22;2207;53.540;10.042;2022-08-18T07:34:53;22.90;99.90
4386;DHT22;2207;53.540;10.042;2022-08-18T07:37:28;22.70;99.90
4386;DHT22;2207;53.540;10.042;2022-08-18T07:40:06;22.60;99.90
4386;DHT22;2207;53.540;10.042;2022-08-18T07:42:48;22.60;99.90
4386;DHT22;2207;53.540;10.042;2022-08-18T07:45:31;22.60;99.90
4386;DHT22;2207;53.540;10.042;2022-08-18T07:48:13;22.60;99.90
4386;DHT22;2207;53.540;10.042;2022-08-18T07:50:57;22.60;99.90
4386;DHT22;2207;53.540;10.042;2022-08-18T07:53:43;22.50;99.90
4386;DHT22;2207;53.540;10.042;2022-08-18T07:56:20;22.50;99.90
4386;DHT22;2207;53.540;10.042;2022-08-18T07:58:56;22.60;99.90
4386;DHT22;2207;53.540;10.042;2022-08-18T08:01:37;22.60;99.90
4386;DHT22;2207;53.540;10.042;2022-08-18T08:04:22;22.70;99.90
4386;DHT22;2207;53.540;10.042;2022-08-18T08:07:03;22.70;99.90
4386;DHT22;2207;53.540;10.042;2022-08-18T08:09:40;22.80;99.90
4386;DHT22;2207;53.540;10.042;2022-08-18T08:12:22;22.70;99.90
4386;DHT22;2207;53.540;10.042;2022-08-18T08:15:02;22.70;99.90
4386;DHT22;2207;53.540;10.042;2022-08-18T08:17:44;22.70;99.90
4386;DHT22;2207;53.540;10.042;2022-08-18T08:20:28;22.70;99.90
4386;DHT22;2207;53.540;10.042;2022-08-18T08:23:18;22.60;99.90
4386;DHT22;2207;53.540;10.042;2022-08-18T08:25:59;22.60;99.90
4386;DHT22;2207;53.540;10.042;2022-08-18T08:28:43;22.60;99.90
4386;DHT22;2207;53.540;10.042;2022-08-18T08:31:27;22.60;99.90
4386;DHT22;2207;53.540;10.042;2022-08-18T08:34:11;22.70;99.90
4386;DHT22;2207;53.540;10.042;2022-08-18T08:36:44;22.80;99.90
4386;DHT22;2207;53.540;10.042;2022-08-18T08:39:20;23.00;99.90
4386;DHT22;2207;53.540;10.042;2022-08-18T08:41:57;23.10;99.90
4386;DHT22;2207;53.540;10.042;2022-08-18T08:44:31;23.30;99.90
4386;DHT22;2207;53.540;10.042;2022-08-18T08:47:07;23.50;99.90
4386;DHT22;2207;53.540;10.042;2022-08-18T08:49:44;23.80;99.90
4386;DHT22;2207;53.540;10.042;2022-08-18T08:52:20;24.00;99.90
4386;DHT22;2207;53.540;10.042;2022-08-18T08:54:58;24.10;99.90
4386;DHT22;2207;53.540;10.042;2022-08-18T08:57:34;24.30;99.90
4386;DHT22;2207;53.540;10.042;2022-08-18T09:00:08;24.40;99.90
4386;DHT22;2207;53.540;10.042;2022-08-18T09:03:12;24.50;99.90
4386;DHT22;2207;53.540;10.042;2022-08-18T09:05:54;24.50;99.90
4386;DHT22;2207;53.540;10.042;2022-08-18T09:08:46;24.60;99.90
4386;DHT22;2207;53.540;10.042;2022-08-18T09:11:38;24.70;99.90
4386;DHT22;2207;53.540;10.042;2022-08-18T09:17:42;25.20;99.90
4386;DHT22;2207;53.540;10.042;2022-08-18T09:20:46;25.50;99.90
4386;DHT22;2207;53.540;10.042;2022-08-18T09:23:21;25.60;99.90
4386;DHT22;2207;53.540;10.042;2022-08-18T09:25:53;26.00;99.90
4386;DHT22;2207;53.540;10.042;2022-08-18T09:28:41;26.10;99.90
4386;DHT22;2207;53.540;10.042;2022-08-18T09:31:15;26.20;99.90
4386;DHT22;2207;53.540;10.042;2022-08-18T09:36:52;26.00;99.90
4386;DHT22;2207;53.540;10.042;2022-08-18T09:39:31;26.10;99.90
4386;DHT22;2207;53.540;10.042;2022-08-18T09:42:28;26.30;99.90
4386;DHT22;2207;53.540;10.042;2022-08-18T09:45:04;26.40;99.90
4386;DHT22;2207;53.540;10.042;2022-08-18T09:47:58;26.30;99.90
4386;DHT22;2207;53.540;10.042;2022-08-18T09:50:50;26.20;99.90
4386;DHT22;2207;53.540;10.042;2022-08-18T09:53:36;26.20;99.90
4386;DHT22;2207;53.540;10.042;2022-08-18T09:56:06;26.30;99.90
4386;DHT22;2207;53.540;10.042;2022-08-18T09:58:56;26.40;99.90
4386;DHT22;2207;53.540;10.042;2022-08-18T10:01:38;26.70;99.90
4386;DHT22;2207;53.540;10.042;2022-08-18T10:04:25;27.00;99.90
4386;DHT22;2207;53.540;10.042;2022-08-18T10:07:12;27.30;99.90
4386;DHT22;2207;53.540;10.042;2022-08-18T10:09:51;27.70;99.90
4386;DHT22;2207;53.540;10.042;2022-08-18T10:12:49;27.80;99.90
4386;DHT22;2207;53.540;10.042;2022-08-18T10:15:35;28.10;99.90
4386;DHT22;2207;53.540;10.042;2022-08-18T10:18:34;28.40;99.90
4386;DHT22;2207;53.540;10.042;2022-08-18T10:21:11;28.50;99.90
4386;DHT22;2207;53.540;10.042;2022-08-18T10:23:55;28.50;99.90
4386;DHT22;2207;53.540;10.042;2022-08-18T10:30:00;28.70;99.90
4386;DHT22;2207;53.540;10.042;2022-08-18T10:32:42;28.50;99.90
4386;DHT22;2207;53.540;10.042;2022-08-18T10:38:45;27.80;99.90
4386;DHT22;2207;53.540;10.042;2022-08-18T10:41:30;27.70;99.90
4386;DHT22;2207;53.540;10.042;2022-08-18T10:44:06;28.00;99.90
4386;DHT22;2207;53.540;10.042;2022-08-18T10:46:41;28.20;99.90
4386;DHT22;2207;53.540;10.042;2022-08-18T10:49:21;28.30;99.90
4386;DHT22;2207;53.540;10.042;2022-08-18T10:52:32;28.60;99.90
4386;DHT22;2207;53.540;10.042;2022-08-18T10:55:27;29.00;99.90
4386;DHT22;2207;53.540;10.042;2022-08-18T11:01:27;29.20;99.90
4386;DHT22;2207;53.540;10.042;2022-08-18T11:04:11;29.30;99.90
4386;DHT22;2207;53.540;10.042;2022-08-18T11:07:07;29.10;99.90
4386;DHT22;2207;53.540;10.042;2022-08-18T11:09:52;29.20;99.90
4386;DHT22;2207;53.540;10.042;2022-08-18T11:12:52;29.30;99.90
4386;DHT22;2207;53.540;10.042;2022-08-18T11:15:37;29.20;99.90
4386;DHT22;2207;53.540;10.042;2022-08-18T11:18:30;28.90;99.90
4386;DHT22;2207;53.540;10.042;2022-08-18T11:21:36;28.70;99.90
4386;DHT22;2207;53.540;10.042;2022-08-18T11:24:15;28.90;99.90
4386;DHT22;2207;53.540;10.042;2022-08-18T11:26:53;28.90;99.90
4386;DHT22;2207;53.540;10.042;2022-08-18T11:29:29;28.60;99.90
4386;DHT22;2207;53.540;10.042;2022-08-18T11:32:12;28.40;99.90
4386;DHT22;2207;53.540;10.042;2022-08-18T11:34:51;28.20;99.90
4386;DHT22;2207;53.540;10.042;2022-08-18T11:38:03;28.00;99.90
4386;DHT22;2207;53.540;10.042;2022-08-18T11:40:42;27.90;99.90
4386;DHT22;2207;53.540;10.042;2022-08-18T11:43:22;28.00;99.90
4386;DHT22;2207;53.540;10.042;2022-08-18T11:46:12;28.20;99.90
4386;DHT22;2207;53.540;10.042;2022-08-18T11:48:51;28.30;99.90
4386;DHT22;2207;53.540;10.042;2022-08-18T11:51:32;28.40;99.90
4386;DHT22;2207;53.540;10.042;2022-08-18T11:54:23;28.60;99.90
4386;DHT22;2207;53.540;10.042;2022-08-18T11:57:29;28.80;99.90
4386;DHT22;2207;53.540;10.042;2022-08-18T12:00:36;28.90;99.90
4386;DHT22;2207;53.540;10.042;2022-08-18T12:03:16;28.90;99.90
4386;DHT22;2207;53.540;10.042;2022-08-18T12:06:00;28.90;99.90
4386;DHT22;2207;53.540;10.042;2022-08-18T12:08:54;28.90;99.90
4386;DHT22;2207;53.540;10.042;2022-08-18T12:11:34;28.90;99.90
4386;DHT22;2207;53.540;10.042;2022-08-18T12:14:14;28.90;99.90
4386;DHT22;2207;53.540;10.042;2022-08-18T12:16:48;29.00;99.90
4386;DHT22;2207;53.540;10.042;2022-08-18T12:19:22;29.10;99.90
4386;DHT22;2207;53.540;10.042;2022-08-18T12:22:11;29.20;99.90
4386;DHT22;2207;53.540;10.042;2022-08-18T12:24:42;29.00;99.90
4386;DHT22;2207;53.540;10.042;2022-08-18T12:27:17;28.70;99.90
4386;DHT22;2207;53.540;10.042;2022-08-18T12:29:50;28.70;99.90
4386;DHT22;2207;53.540;10.042;2022-08-18T12:32:24;28.60;99.90
4386;DHT22;2207;53.540;10.042;2022-08-18T12:35:00;28.50;99.90
4386;DHT22;2207;53.540;10.042;2022-08-18T12:37:34;28.30;99.90
4386;DHT22;2207;53.540;10.042;2022-08-18T12:40:10;28.40;99.90
4386;DHT22;2207;53.540;10.042;2022-08-18T12:42:42;28.40;99.90
4386;DHT22;2207;53.540;10.042;2022-08-18T12:45:16;28.40;99.90
4386;DHT22;2207;53.540;10.042;2022-08-18T12:47:45;28.00;99.90
4386;DHT22;2207;53.540;10.042;2022-08-18T12:50:14;27.80;99.90
4386;DHT22;2207;53.540;10.042;2022-08-18T12:52:42;27.60;99.90
4386;DHT22;2207;53.540;10.042;2022-08-18T12:55:13;27.50;99.90
4386;DHT22;2207;53.540;10.042;2022-08-18T12:57:46;27.50;99.90
4386;DHT22;2207;53.540;10.042;2022-08-18T13:00:15;27.50;99.90
4386;DHT22;2207;53.540;10.042;2022-08-18T13:02:46;27.60;99.90
4386;DHT22;2207;53.540;10.042;2022-08-18T13:05:20;27.50;99.90
4386;DHT22;2207;53.540;10.042;2022-08-18T13:07:52;27.40;99.90
4386;DHT22;2207;53.540;10.042;2022-08-18T13:10:34;27.40;99.90
4386;DHT22;2207;53.540;10.042;2022-08-18T13:13:17;27.40;99.90
4386;DHT22;2207;53.540;10.042;2022-08-18T13:15:50;27.40;99.90
4386;DHT22;2207;53.540;10.042;2022-08-18T13:18:23;27.40;99.90
4386;DHT22;2207;53.540;10.042;2022-08-18T13:20:59;27.40;99.90
4386;DHT22;2207;53.540;10.042;2022-08-18T13:23:35;27.40;99.90
4386;DHT22;2207;53.540;10.042;2022-08-18T13:26:15;27.40;99.90
4386;DHT22;2207;53.540;10.042;2022-08-18T13:28:47;27.40;99.90
4386;DHT22;2207;53.540;10.042;2022-08-18T13:31:20;27.40;99.90
4386;DHT22;2207;53.540;10.042;2022-08-18T13:33:52;27.40;99.90
4386;DHT22;2207;53.540;10.042;2022-08-18T13:36:23;27.30;99.90
4386;DHT22;2207;53.540;10.042;2022-08-18T13:39:11;27.20;99.90
4386;DHT22;2207;53.540;10.042;2022-08-18T13:41:40;27.20;99.90
4386;DHT22;2207;53.540;10.042;2022-08-18T13:44:13;27.10;99.90
4386;DHT22;2207;53.540;10.042;2022-08-18T13:46:44;27.30;99.90
4386;DHT22;2207;53.540;10.042;2022-08-18T13:49:15;27.40;99.90
4386;DHT22;2207;53.540;10.042;2022-08-18T13:51:45;27.40;99.90
4386;DHT22;2207;53.540;10.042;2022-08-18T13:54:20;27.40;99.90
4386;DHT22;2207;53.540;10.042;2022-08-18T13:56:51;27.50;99.90
4386;DHT22;2207;53.540;10.042;2022-08-18T13:59:20;27.50;99.90
4386;DHT22;2207;53.540;10.042;2022-08-18T14:01:50;27.60;99.90
4386;DHT22;2207;53.540;10.042;2022-08-18T14:04:20;27.70;99.90
4386;DHT22;2207;53.540;10.042;2022-08-18T14:06:49;27.80;99.90
4386;DHT22;2207;53.540;10.042;2022-08-18T14:09:18;28.00;99.90
4386;DHT22;2207;53.540;10.042;2022-08-18T14:11:46;28.00;99.90
4386;DHT22;2207;53.540;10.042;2022-08-18T14:14:15;28.10;99.90
4386;DHT22;2207;53.540;10.042;2022-08-18T14:16:44;28.00;99.90
4386;DHT22;2207;53.540;10.042;2022-08-18T14:19:12;27.90;99.90
4386;DHT22;2207;53.540;10.042;2022-08-18T14:21:57;27.80;99.90
4386;DHT22;2207;53.540;10.042;2022-08-18T14:24:42;27.70;99.90
4386;DHT22;2207;53.540;10.042;2022-08-18T14:27:29;27.60;99.90
4386;DHT22;2207;53.540;10.042;2022-08-18T14:29:57;27.60;99.90
4386;DHT22;2207;53.540;10.042;2022-08-18T14:32:26;27.50;99.90
4386;DHT22;2207;53.540;10.042;2022-08-18T14:34:54;27.40;99.90
4386;DHT22;2207;53.540;10.042;2022-08-18T14:37:22;27.50;99.90
4386;DHT22;2207;53.540;10.042;2022-08-18T14:39:49;27.40;99.90
4386;DHT22;2207;53.540;10.042;2022-08-18T14:42:17;27.50;99.90
4386;DHT22;2207;53.540;10.042;2022-08-18T14:44:46;27.50;99.90
4386;DHT22;2207;53.540;10.042;2022-08-18T14:47:14;27.50;99.90
4386;DHT22;2207;53.540;10.042;2022-08-18T14:49:43;27.60;99.90
4386;DHT22;2207;53.540;10.042;2022-08-18T14:52:12;27.70;99.90
4386;DHT22;2207;53.540;10.042;2022-08-18T14:54:40;27.90;99.90
4386;DHT22;2207;53.540;10.042;2022-08-18T14:57:07;28.10;99.90
4386;DHT22;2207;53.540;10.042;2022-08-18T14:59:36;28.10;99.90
4386;DHT22;2207;53.540;10.042;2022-08-18T15:02:05;28.20;99.90
4386;DHT22;2207;53.540;10.042;2022-08-18T15:04:33;28.20;99.90
4386;DHT22;2207;53.540;10.042;2022-08-18T15:07:02;28.30;99.90
4386;DHT22;2207;53.540;10.042;2022-08-18T15:09:30;28.40;99.90
4386;DHT22;2207;53.540;10.042;2022-08-18T15:11:59;28.50;99.90
4386;DHT22;2207;53.540;10.042;2022-08-18T15:14:31;28.50;99.90
4386;DHT22;2207;53.540;10.042;2022-08-18T15:17:00;28.50;99.90
4386;DHT22;2207;53.540;10.042;2022-08-18T15:19:29;28.60;99.90
4386;DHT22;2207;53.540;10.042;2022-08-18T15:21:57;28.60;99.90
4386;DHT22;2207;53.540;10.042;2022-08-18T15:24:43;28.60;99.90
4386;DHT22;2207;53.540;10.042;2022-08-18T15:27:31;28.70;99.90
4386;DHT22;2207;53.540;10.042;2022-08-18T15:30:02;28.80;99.90
4386;DHT22;2207;53.540;10.042;2022-08-18T15:32:30;28.80;99.90
4386;DHT22;2207;53.540;10.042;2022-08-18T15:34:57;28.40;99.90
4386;DHT22;2207;53.540;10.042;2022-08-18T15:37:25;28.00;99.90
4386;DHT22;2207;53.540;10.042;2022-08-18T15:40:01;27.90;99.90
4386;DHT22;2207;53.540;10.042;2022-08-18T15:42:36;27.80;99.90
4386;DHT22;2207;53.540;10.042;2022-08-18T15:45:04;27.70;99.90
4386;DHT22;2207;53.540;10.042;2022-08-18T15:47:32;27.40;99.90
4386;DHT22;2207;53.540;10.042;2022-08-18T15:49:59;27.20;99.90
4386;DHT22;2207;53.540;10.042;2022-08-18T15:52:26;27.10;99.90
4386;DHT22;2207;53.540;10.042;2022-08-18T15:54:54;27.10;99.90
4386;DHT22;2207;53.540;10.042;2022-08-18T15:57:22;27.00;99.90
4386;DHT22;2207;53.540;10.042;2022-08-18T15:59:49;27.00;99.90
4386;DHT22;2207;53.540;10.042;2022-08-18T16:02:17;26.80;99.90
4386;DHT22;2207;53.540;10.042;2022-08-18T16:04:44;26.70;99.90
4386;DHT22;2207;53.540;10.042;2022-08-18T16:07:11;26.80;99.90
4386;DHT22;2207;53.540;10.042;2022-08-18T16:09:38;26.80;99.90
4386;DHT22;2207;53.540;10.042;2022-08-18T16:12:07;26.80;99.90
4386;DHT22;2207;53.540;10.042;2022-08-18T16:14:37;26.70;99.90
4386;DHT22;2207;53.540;10.042;2022-08-18T16:17:04;26.60;99.90
4386;DHT22;2207;53.540;10.042;2022-08-18T16:19:31;26.50;99.90
4386;DHT22;2207;53.540;10.042;2022-08-18T16:21:58;26.40;99.90
4386;DHT22;2207;53.540;10.042;2022-08-18T16:24:25;26.40;99.90
4386;DHT22;2207;53.540;10.042;2022-08-18T16:26:52;26.40;99.90
4386;DHT22;2207;53.540;10.042;2022-08-18T16:29:20;26.30;99.90
4386;DHT22;2207;53.540;10.042;2022-08-18T16:31:48;26.20;99.90
4386;DHT22;2207;53.540;10.042;2022-08-18T16:34:16;26.10;99.90
4386;DHT22;2207;53.540;10.042;2022-08-18T16:36:43;26.00;99.90
4386;DHT22;2207;53.540;10.042;2022-08-18T16:39:13;26.00;99.90
4386;DHT22;2207;53.540;10.042;2022-08-18T16:41:39;26.00;99.90
4386;DHT22;2207;53.540;10.042;2022-08-18T16:44:07;26.00;99.90
4386;DHT22;2207;53.540;10.042;2022-08-18T16:46:35;26.00;99.90
4386;DHT22;2207;53.540;10.042;2022-08-18T16:49:04;26.00;99.90
4386;DHT22;2207;53.540;10.042;2022-08-18T16:51:32;26.00;99.90
4386;DHT22;2207;53.540;10.042;2022-08-18T16:53:59;26.00;99.90